This is the latest recevied weather packets stored in our database for station/object KN6KS. If no packets are shown the sender has not sent any weather packets the latest 10 day(s).
| Time | Temp. | Humidity | Pressure | Rain* | Wind** | Luminosity | Snow |
|---|---|---|---|---|---|---|---|
| 1777940809 | 15° C | 55% | 1011.6 hPa | 0 mm | - | 129 W/m² | - |
| 1777940507 | 15° C | 55% | 1011.7 hPa | 0 mm | - | 337 W/m² | - |
| 1777940204 | 15° C | 55% | 1011.3 hPa | 0 mm | - | 347 W/m² | - |
| 1777939902 | 15.56° C | 53% | 1011.4 hPa | 0 mm | - | 364 W/m² | - |
| 1777939599 | 15° C | 53% | 1011.4 hPa | 0 mm | - | 372 W/m² | - |
| 1777939297 | 15° C | 52% | 1011.6 hPa | 0 mm | - | 374 W/m² | - |
| 1777938993 | 15° C | 51% | 1011.5 hPa | 0 mm | - | 383 W/m² | - |
| 1777938689 | 15.56° C | 51% | 1011.4 hPa | 0 mm | - | 406 W/m² | - |
| 1777938386 | 15.56° C | 51% | 1011.6 hPa | 0 mm | - | 412 W/m² | - |
| 1777938084 | 15.56° C | 51% | 1011.4 hPa | 0 mm | - | 451 W/m² | - |
| 1777937779 | 15.56° C | 51% | 1011.5 hPa | 0 mm | - | 455 W/m² | - |
| 1777937475 | 15.56° C | 50% | 1011.6 hPa | 0 mm | - | 445 W/m² | - |
| 1777937174 | 16.11° C | 48% | 1011.7 hPa | 0 mm | - | 485 W/m² | - |
| 1777936870 | 15.56° C | 48% | 1011.8 hPa | 0 mm | - | 503 W/m² | - |
| 1777936567 | 15.56° C | 54% | 1011.7 hPa | 0 mm | - | 510 W/m² | - |
| 1777936263 | 15.56° C | 53% | 1011.9 hPa | 0 mm | - | 573 W/m² | - |
| 1777935959 | 15.56° C | 54% | 1011.8 hPa | 0 mm | - | 553 W/m² | - |
| 1777935658 | 15.56° C | 53% | 1011.8 hPa | 0 mm | - | 128 W/m² | - |
| 1777935355 | 15.56° C | 53% | 1012 hPa | 0 mm | - | 549 W/m² | - |
| 1777935052 | 15.56° C | 53% | 1011.8 hPa | 0 mm | - | 108 W/m² | - |
| 1777934749 | 16.11° C | 52% | 1012.2 hPa | 0 mm | - | 607 W/m² | - |
| 1777934446 | 15.56° C | 51% | 1012 hPa | 0 mm | - | 689 W/m² | - |
| 1777934143 | 16.11° C | 51% | 1012.4 hPa | 0 mm | - | 269 W/m² | - |
| 1777933838 | 15° C | 51% | 1011.9 hPa | 0 mm | - | 628 W/m² | - |
| 1777933536 | 16.67° C | 48% | 1012.1 hPa | 0 mm | - | 168 W/m² | - |
* Rain latest hour (hover to see other rain measurements)
** Current wind speed in m/s (hover to see current wind gust speed)